FranceFixed distance
La Grande Course des Templiers
29 Oct2006
Distance
66km
Finishers
1,9011,733 men168 women
Winning time
6:34:56h
Median pace
6.24km/h
Pace distribution
1,901 finishers · 4.34–10.03 km/h · mean 6.40
Every finisher ran the same 66 km course, so these paces are directly comparable.
Histogram of finisher pace. 1,901 finishers ranged from 4.34 to 10.03 kilometres per hour, with a mean of 6.40 and a median of 6.24. The busiest band is 5.5 to 6.0 kilometres per hour, with 432 finishers.
Results
Ranks 501–550 of 1,901
| Rank | Runner | Time | Pace | Cat. | Placing |
|---|---|---|---|---|---|
| 501 | Pouilly, BorisFranceMan | 9:31:44h | 6.93 | — | 477th M |
| 502 | Fallot, ChristopheFranceMan | 9:31:44h | 6.93 | M23 | 477th M · 127th M23 |
| 503 | Furtado da Silva, SoniaFranceWoman | 9:31:51h | 6.92 | W23 | 25th F · 11th W23 |
| 504 | Bodin, AlainFranceMan | 9:31:51h | 6.92 | M35 | 479th M · 109th M35 |
| 505 | Gomord, NicolasFranceMan | 9:31:52h | 6.92 | — | 480th M |
| 506 | Laurent, AnthonyFranceMan | 9:31:53h | 6.92 | — | 481st M |
| 507 | Dewanckele, FrancoisFranceMan | 9:32:07h | 6.92 | M55 | 482nd M · 6th M55 |
| 508 | Massignac, GregoryFranceMan | 9:32:11h | 6.92 | M23 | 483rd M · 128th M23 |
| 509 | Masson, PascalFranceMan | 9:32:18h | 6.92 | M45 | 484th M · 69th M45 |
| 510 | Le Meur, PatrickFranceMan | 9:32:21h | 6.92 | — | 485th M |
| 511 | Dumas, PascalFranceMan | 9:32:35h | 6.92 | M35 | 486th M · 110th M35 |
| 512 | Colin, GerardFranceMan | 9:32:43h | 6.91 | M55 | 487th M · 7th M55 |
| 513 | Wisniewski, AlainFranceMan | 9:32:48h | 6.91 | M40 | 488th M · 104th M40 |
| 514 | Pennec, DavidFranceMan | 9:32:51h | 6.91 | M23 | 489th M · 129th M23 |
| 515 | Aubonnet, ChristopheFranceMan | 9:33:17h | 6.91 | M35 | 490th M · 111th M35 |
| 516 | Toffoli, BrunoFranceMan | 9:33:26h | 6.91 | M50 | 491st M · 22nd M50 |
| 517 | Lamy, Ludovic Jean-OlivierFranceMan | 9:33:54h | 6.90 | MU23 | 492nd M · 2nd MU23 |
| 518 | Faure, OlivierFranceMan | 9:34:08h | 6.90 | — | 493rd M |
| 519 | Bachelerie, ClaudeFranceMan | 9:34:20h | 6.89 | M45 | 494th M · 70th M45 |
| 520 | Galletto, MarcoItalyMan | 9:34:30h | 6.89 | M45 | 495th M · 71st M45 |
| 521 | Belle, Jean-PierreFranceMan | 9:34:39h | 6.89 | M50 | 496th M · 23rd M50 |
| 522 | Kuschnick, PhilippeFranceMan | 9:34:44h | 6.89 | M35 | 497th M · 112th M35 |
| 523 | Bardaud, DavidFranceMan | 9:35:20h | 6.88 | M23 | 498th M · 130th M23 |
| 524 | Evrard, DavidFranceMan | 9:35:28h | 6.88 | — | 499th M |
| 525 | Clement, StephaneFranceMan | 9:35:37h | 6.88 | M45 | 500th M · 72nd M45 |
| 526 | Ditsch, DanielFranceMan | 9:35:41h | 6.88 | M45 | 501st M · 73rd M45 |
| 527 | Pierre, MariaFranceWoman | 9:35:43h | 6.88 | W40 | 26th F · 5th W40 |
| 528 | Dahl, AmandineFranceWoman | 9:36:00h | 6.88 | WU23 | 27th F · 1st WU23 |
| 529 | Richard, FrancoisFranceMan | 9:36:03h | 6.87 | M40 | 502nd M · 105th M40 |
| 530 | Saleil, MaximeFranceMan | 9:36:03h | 6.87 | — | 502nd M |
| 531 | Negre, DenisFranceMan | 9:36:03h | 6.87 | — | 502nd M |
| 532 | Boulestin, ChristopheFranceMan | 9:36:04h | 6.87 | M23 | 505th M · 131st M23 |
| 533 | Mautone, DavidSwitzerlandMan | 9:36:06h | 6.87 | M23 | 506th M · 132nd M23 |
| 534 | Pruvot, JeromeFranceMan | 9:36:10h | 6.87 | M23 | 507th M · 133rd M23 |
| 535 | Sence, StephaneFranceMan | 9:36:11h | 6.87 | M23 | 508th M · 134th M23 |
| 536 | Baisse, PatrickFranceMan | 9:36:11h | 6.87 | M35 | 508th M · 113th M35 |
| 537 | Hubert, MatthieuFranceMan | 9:36:13h | 6.87 | M23 | 510th M · 135th M23 |
| 538 | Watine, NicolasFranceMan | 9:36:14h | 6.87 | M35 | 511th M · 114th M35 |
| 539 | Medina, FranciscoSpainMan | 9:36:15h | 6.87 | M40 | 512th M · 106th M40 |
| 540 | da Costa, AntonioFranceMan | 9:36:15h | 6.87 | M40 | 512th M · 106th M40 |
| 541 | Deschamps, JulienFranceMan | 9:36:16h | 6.87 | M23 | 514th M · 136th M23 |
| 542 | Chardin, EricFranceMan | 9:36:18h | 6.87 | M45 | 515th M · 74th M45 |
| 543 | Darneix, DominiqueFranceMan | 9:36:18h | 6.87 | M40 | 515th M · 108th M40 |
| 544 | Strotilat, EricFranceMan | 9:36:19h | 6.87 | M35 | 517th M · 115th M35 |
| 545 | Lacroix, Jean-PierreFranceMan | 9:36:23h | 6.87 | M40 | 518th M · 109th M40 |
| 546 | Reigniez, LaurentFranceMan | 9:36:23h | 6.87 | M35 | 518th M · 116th M35 |
| 547 | Delcros, SergeFranceMan | 9:36:23h | 6.87 | M45 | 518th M · 75th M45 |
| 548 | Rouzies, BernardFranceMan | 9:36:24h | 6.87 | M50 | 521st M · 24th M50 |
| 549 | Lamy, DanielFranceMan | 9:36:25h | 6.87 | — | 522nd M |
| 550 | Granie, DominiqueFranceMan | 9:36:27h | 6.87 | — | 523rd M |
- 501Pouilly, BorisFranceMan477th MTime9:31:44hPace6.93
- 502Fallot, ChristopheFranceMan477th M · 127th M23Time9:31:44hPace6.93Cat.M23
- 503Furtado da Silva, SoniaFranceWoman25th F · 11th W23Time9:31:51hPace6.92Cat.W23
- 504Bodin, AlainFranceMan479th M · 109th M35Time9:31:51hPace6.92Cat.M35
- 505Gomord, NicolasFranceMan480th MTime9:31:52hPace6.92
- 506Laurent, AnthonyFranceMan481st MTime9:31:53hPace6.92
- 507Dewanckele, FrancoisFranceMan482nd M · 6th M55Time9:32:07hPace6.92Cat.M55
- 508Massignac, GregoryFranceMan483rd M · 128th M23Time9:32:11hPace6.92Cat.M23
- 509Masson, PascalFranceMan484th M · 69th M45Time9:32:18hPace6.92Cat.M45
- 510Le Meur, PatrickFranceMan485th MTime9:32:21hPace6.92
- 511Dumas, PascalFranceMan486th M · 110th M35Time9:32:35hPace6.92Cat.M35
- 512Colin, GerardFranceMan487th M · 7th M55Time9:32:43hPace6.91Cat.M55
- 513Wisniewski, AlainFranceMan488th M · 104th M40Time9:32:48hPace6.91Cat.M40
- 514Pennec, DavidFranceMan489th M · 129th M23Time9:32:51hPace6.91Cat.M23
- 515Aubonnet, ChristopheFranceMan490th M · 111th M35Time9:33:17hPace6.91Cat.M35
- 516Toffoli, BrunoFranceMan491st M · 22nd M50Time9:33:26hPace6.91Cat.M50
- 517Lamy, Ludovic Jean-OlivierFranceMan492nd M · 2nd MU23Time9:33:54hPace6.90Cat.MU23
- 518Faure, OlivierFranceMan493rd MTime9:34:08hPace6.90
- 519Bachelerie, ClaudeFranceMan494th M · 70th M45Time9:34:20hPace6.89Cat.M45
- 520Galletto, MarcoItalyMan495th M · 71st M45Time9:34:30hPace6.89Cat.M45
- 521Belle, Jean-PierreFranceMan496th M · 23rd M50Time9:34:39hPace6.89Cat.M50
- 522Kuschnick, PhilippeFranceMan497th M · 112th M35Time9:34:44hPace6.89Cat.M35
- 523Bardaud, DavidFranceMan498th M · 130th M23Time9:35:20hPace6.88Cat.M23
- 524Evrard, DavidFranceMan499th MTime9:35:28hPace6.88
- 525Clement, StephaneFranceMan500th M · 72nd M45Time9:35:37hPace6.88Cat.M45
- 526Ditsch, DanielFranceMan501st M · 73rd M45Time9:35:41hPace6.88Cat.M45
- 527Pierre, MariaFranceWoman26th F · 5th W40Time9:35:43hPace6.88Cat.W40
- 528Dahl, AmandineFranceWoman27th F · 1st WU23Time9:36:00hPace6.88Cat.WU23
- 529Richard, FrancoisFranceMan502nd M · 105th M40Time9:36:03hPace6.87Cat.M40
- 530Saleil, MaximeFranceMan502nd MTime9:36:03hPace6.87
- 531Negre, DenisFranceMan502nd MTime9:36:03hPace6.87
- 532Boulestin, ChristopheFranceMan505th M · 131st M23Time9:36:04hPace6.87Cat.M23
- 533Mautone, DavidSwitzerlandMan506th M · 132nd M23Time9:36:06hPace6.87Cat.M23
- 534Pruvot, JeromeFranceMan507th M · 133rd M23Time9:36:10hPace6.87Cat.M23
- 535Sence, StephaneFranceMan508th M · 134th M23Time9:36:11hPace6.87Cat.M23
- 536Baisse, PatrickFranceMan508th M · 113th M35Time9:36:11hPace6.87Cat.M35
- 537Hubert, MatthieuFranceMan510th M · 135th M23Time9:36:13hPace6.87Cat.M23
- 538Watine, NicolasFranceMan511th M · 114th M35Time9:36:14hPace6.87Cat.M35
- 539Medina, FranciscoSpainMan512th M · 106th M40Time9:36:15hPace6.87Cat.M40
- 540da Costa, AntonioFranceMan512th M · 106th M40Time9:36:15hPace6.87Cat.M40
- 541Deschamps, JulienFranceMan514th M · 136th M23Time9:36:16hPace6.87Cat.M23
- 542Chardin, EricFranceMan515th M · 74th M45Time9:36:18hPace6.87Cat.M45
- 543Darneix, DominiqueFranceMan515th M · 108th M40Time9:36:18hPace6.87Cat.M40
- 544Strotilat, EricFranceMan517th M · 115th M35Time9:36:19hPace6.87Cat.M35
- 545Lacroix, Jean-PierreFranceMan518th M · 109th M40Time9:36:23hPace6.87Cat.M40
- 546Reigniez, LaurentFranceMan518th M · 116th M35Time9:36:23hPace6.87Cat.M35
- 547Delcros, SergeFranceMan518th M · 75th M45Time9:36:23hPace6.87Cat.M45
- 548Rouzies, BernardFranceMan521st M · 24th M50Time9:36:24hPace6.87Cat.M50
- 549Lamy, DanielFranceMan522nd MTime9:36:25hPace6.87
- 550Granie, DominiqueFranceMan523rd MTime9:36:27hPace6.87
Showing ranks 501–550 of 1,901